sensor_id;sensor_type;location;lat;lon;timestamp;pressure;altitude;pressure_sealevel;temperature;humidity
34696;BME280;20918;51.138;17.370;2023-12-14T00:00:26;98977.52;;;3.41;100.00
34696;BME280;20918;51.138;17.370;2023-12-14T00:03:27;98978.47;;;3.42;100.00
34696;BME280;20918;51.138;17.370;2023-12-14T00:06:31;98981.58;;;3.42;100.00
34696;BME280;20918;51.138;17.370;2023-12-14T00:09:32;98981.20;;;3.41;100.00
34696;BME280;20918;51.138;17.370;2023-12-14T00:12:35;98983.91;;;3.40;100.00
34696;BME280;20918;51.138;17.370;2023-12-14T00:15:36;98987.52;;;3.39;100.00
34696;BME280;20918;51.138;17.370;2023-12-14T00:18:41;98985.45;;;3.38;100.00
34696;BME280;20918;51.138;17.370;2023-12-14T00:21:50;98988.60;;;3.38;100.00
34696;BME280;20918;51.138;17.370;2023-12-14T00:24:50;98990.20;;;3.38;100.00
34696;BME280;20918;51.138;17.370;2023-12-14T00:27:52;98996.85;;;3.38;100.00
34696;BME280;20918;51.138;17.370;2023-12-14T00:31:15;99000.11;;;3.39;100.00
34696;BME280;20918;51.138;17.370;2023-12-14T00:34:19;99004.50;;;3.39;100.00
34696;BME280;20918;51.138;17.370;2023-12-14T00:37:20;99012.13;;;3.39;100.00
34696;BME280;20918;51.138;17.370;2023-12-14T00:40:41;99014.36;;;3.40;100.00
34696;BME280;20918;51.138;17.370;2023-12-14T00:43:47;99022.98;;;3.41;100.00
34696;BME280;20918;51.138;17.370;2023-12-14T00:47:05;99021.75;;;3.41;100.00
34696;BME280;20918;51.138;17.370;2023-12-14T00:50:09;99027.86;;;3.43;100.00
34696;BME280;20918;51.138;17.370;2023-12-14T00:53:09;99033.63;;;3.44;100.00
34696;BME280;20918;51.138;17.370;2023-12-14T00:56:16;99037.95;;;3.45;100.00
34696;BME280;20918;51.138;17.370;2023-12-14T00:59:19;99042.48;;;3.45;100.00
34696;BME280;20918;51.138;17.370;2023-12-14T01:02:20;99045.20;;;3.44;100.00
34696;BME280;20918;51.138;17.370;2023-12-14T01:05:21;99049.96;;;3.44;100.00
34696;BME280;20918;51.138;17.370;2023-12-14T01:08:22;99051.22;;;3.44;100.00
34696;BME280;20918;51.138;17.370;2023-12-14T01:11:22;99060.09;;;3.42;100.00
34696;BME280;20918;51.138;17.370;2023-12-14T01:14:31;99063.89;;;3.43;100.00
34696;BME280;20918;51.138;17.370;2023-12-14T01:21:58;99070.98;;;3.43;100.00
34696;BME280;20918;51.138;17.370;2023-12-14T01:25:21;99072.38;;;3.45;100.00
34696;BME280;20918;51.138;17.370;2023-12-14T01:28:25;99075.40;;;3.46;100.00
34696;BME280;20918;51.138;17.370;2023-12-14T01:31:26;99071.30;;;3.47;100.00
34696;BME280;20918;51.138;17.370;2023-12-14T01:34:27;99074.02;;;3.48;100.00
34696;BME280;20918;51.138;17.370;2023-12-14T01:37:27;99071.05;;;3.46;100.00
34696;BME280;20918;51.138;17.370;2023-12-14T01:40:28;99067.55;;;3.46;100.00
34696;BME280;20918;51.138;17.370;2023-12-14T01:43:31;99066.99;;;3.47;100.00
34696;BME280;20918;51.138;17.370;2023-12-14T01:46:32;99069.89;;;3.46;100.00
34696;BME280;20918;51.138;17.370;2023-12-14T01:49:40;99066.98;;;3.45;100.00
34696;BME280;20918;51.138;17.370;2023-12-14T01:52:45;99067.77;;;3.44;100.00
34696;BME280;20918;51.138;17.370;2023-12-14T01:55:46;99069.66;;;3.42;100.00
34696;BME280;20918;51.138;17.370;2023-12-14T01:58:47;99070.24;;;3.42;100.00
34696;BME280;20918;51.138;17.370;2023-12-14T02:01:57;99070.76;;;3.40;100.00
34696;BME280;20918;51.138;17.370;2023-12-14T02:04:58;99071.94;;;3.41;100.00
34696;BME280;20918;51.138;17.370;2023-12-14T02:07:58;99074.52;;;3.41;100.00
34696;BME280;20918;51.138;17.370;2023-12-14T02:10:59;99070.00;;;3.41;100.00
34696;BME280;20918;51.138;17.370;2023-12-14T02:14:04;99070.41;;;3.42;100.00
34696;BME280;20918;51.138;17.370;2023-12-14T02:17:05;99070.40;;;3.40;100.00
34696;BME280;20918;51.138;17.370;2023-12-14T02:20:10;99073.20;;;3.38;100.00
34696;BME280;20918;51.138;17.370;2023-12-14T02:23:13;99076.74;;;3.36;100.00
34696;BME280;20918;51.138;17.370;2023-12-14T02:26:14;99078.35;;;3.34;100.00
34696;BME280;20918;51.138;17.370;2023-12-14T02:29:15;99079.79;;;3.32;100.00
34696;BME280;20918;51.138;17.370;2023-12-14T02:32:16;99087.73;;;3.31;100.00
34696;BME280;20918;51.138;17.370;2023-12-14T02:35:16;99095.64;;;3.32;100.00
34696;BME280;20918;51.138;17.370;2023-12-14T02:38:18;99093.67;;;3.32;100.00
34696;BME280;20918;51.138;17.370;2023-12-14T02:41:22;99101.05;;;3.30;100.00
34696;BME280;20918;51.138;17.370;2023-12-14T02:44:37;99104.88;;;3.29;100.00
34696;BME280;20918;51.138;17.370;2023-12-14T02:47:39;99103.84;;;3.27;100.00
34696;BME280;20918;51.138;17.370;2023-12-14T02:51:03;99108.80;;;3.24;100.00
34696;BME280;20918;51.138;17.370;2023-12-14T02:54:11;99109.98;;;3.21;100.00
34696;BME280;20918;51.138;17.370;2023-12-14T02:57:25;99113.23;;;3.16;100.00
34696;BME280;20918;51.138;17.370;2023-12-14T03:00:26;99113.23;;;3.14;100.00
34696;BME280;20918;51.138;17.370;2023-12-14T03:03:29;99114.63;;;3.10;100.00
34696;BME280;20918;51.138;17.370;2023-12-14T03:06:35;99114.73;;;3.07;100.00
34696;BME280;20918;51.138;17.370;2023-12-14T03:09:39;99118.59;;;3.05;100.00
34696;BME280;20918;51.138;17.370;2023-12-14T03:12:41;99118.82;;;3.05;100.00
34696;BME280;20918;51.138;17.370;2023-12-14T03:16:04;99122.81;;;3.05;100.00
34696;BME280;20918;51.138;17.370;2023-12-14T03:19:13;99128.45;;;3.05;100.00
34696;BME280;20918;51.138;17.370;2023-12-14T03:22:26;99135.37;;;3.01;100.00
34696;BME280;20918;51.138;17.370;2023-12-14T03:25:27;99143.38;;;3.02;100.00
34696;BME280;20918;51.138;17.370;2023-12-14T03:28:28;99146.21;;;3.03;100.00
34696;BME280;20918;51.138;17.370;2023-12-14T03:31:29;99152.89;;;3.03;100.00
34696;BME280;20918;51.138;17.370;2023-12-14T03:34:30;99156.39;;;3.03;100.00
34696;BME280;20918;51.138;17.370;2023-12-14T03:37:34;99163.73;;;3.01;100.00
34696;BME280;20918;51.138;17.370;2023-12-14T03:40:35;99168.23;;;2.99;100.00
34696;BME280;20918;51.138;17.370;2023-12-14T03:43:36;99168.88;;;2.98;100.00
34696;BME280;20918;51.138;17.370;2023-12-14T03:46:37;99173.84;;;2.98;100.00
34696;BME280;20918;51.138;17.370;2023-12-14T03:49:38;99176.09;;;2.96;100.00
34696;BME280;20918;51.138;17.370;2023-12-14T03:52:39;99181.70;;;2.96;100.00
34696;BME280;20918;51.138;17.370;2023-12-14T03:55:49;99182.75;;;2.96;100.00
34696;BME280;20918;51.138;17.370;2023-12-14T03:58:50;99188.68;;;2.96;100.00
34696;BME280;20918;51.138;17.370;2023-12-14T04:01:51;99192.12;;;2.96;100.00
34696;BME280;20918;51.138;17.370;2023-12-14T04:04:52;99193.56;;;2.98;100.00
34696;BME280;20918;51.138;17.370;2023-12-14T04:07:53;99201.19;;;2.99;100.00
34696;BME280;20918;51.138;17.370;2023-12-14T04:10:57;99209.26;;;2.98;100.00
34696;BME280;20918;51.138;17.370;2023-12-14T04:13:58;99211.86;;;2.97;100.00
34696;BME280;20918;51.138;17.370;2023-12-14T04:16:59;99214.17;;;2.96;100.00
34696;BME280;20918;51.138;17.370;2023-12-14T04:20:02;99221.27;;;2.97;100.00
34696;BME280;20918;51.138;17.370;2023-12-14T04:23:04;99228.10;;;2.96;100.00
34696;BME280;20918;51.138;17.370;2023-12-14T04:26:07;99231.41;;;2.95;100.00
34696;BME280;20918;51.138;17.370;2023-12-14T04:29:10;99231.55;;;2.93;100.00
34696;BME280;20918;51.138;17.370;2023-12-14T04:32:11;99234.16;;;2.93;100.00
34696;BME280;20918;51.138;17.370;2023-12-14T04:35:53;99240.05;;;2.96;100.00
34696;BME280;20918;51.138;17.370;2023-12-14T04:39:17;99243.00;;;3.00;100.00
34696;BME280;20918;51.138;17.370;2023-12-14T04:43:01;99250.50;;;3.04;100.00
34696;BME280;20918;51.138;17.370;2023-12-14T04:46:54;99252.77;;;3.02;100.00
34696;BME280;20918;51.138;17.370;2023-12-14T04:49:54;99257.67;;;3.00;100.00
34696;BME280;20918;51.138;17.370;2023-12-14T04:52:55;99256.70;;;3.01;100.00
34696;BME280;20918;51.138;17.370;2023-12-14T04:55:56;99257.60;;;3.01;100.00
34696;BME280;20918;51.138;17.370;2023-12-14T04:59:00;99259.70;;;2.99;100.00
34696;BME280;20918;51.138;17.370;2023-12-14T05:02:01;99260.94;;;2.97;100.00
34696;BME280;20918;51.138;17.370;2023-12-14T05:05:02;99266.15;;;2.97;100.00
34696;BME280;20918;51.138;17.370;2023-12-14T05:08:03;99270.08;;;3.00;100.00
34696;BME280;20918;51.138;17.370;2023-12-14T05:11:12;99274.71;;;3.04;100.00
34696;BME280;20918;51.138;17.370;2023-12-14T05:14:15;99276.90;;;3.05;100.00
34696;BME280;20918;51.138;17.370;2023-12-14T05:17:19;99280.92;;;3.07;100.00
34696;BME280;20918;51.138;17.370;2023-12-14T05:20:22;99289.52;;;3.05;100.00
34696;BME280;20918;51.138;17.370;2023-12-14T05:23:23;99293.54;;;3.03;100.00
34696;BME280;20918;51.138;17.370;2023-12-14T05:26:27;99297.65;;;3.04;100.00
34696;BME280;20918;51.138;17.370;2023-12-14T05:29:30;99301.04;;;3.07;100.00
34696;BME280;20918;51.138;17.370;2023-12-14T05:32:31;99302.75;;;3.07;100.00
34696;BME280;20918;51.138;17.370;2023-12-14T05:35:50;99305.48;;;3.06;100.00
34696;BME280;20918;51.138;17.370;2023-12-14T05:39:02;99310.48;;;3.03;100.00
34696;BME280;20918;51.138;17.370;2023-12-14T05:42:06;99312.65;;;3.00;100.00
34696;BME280;20918;51.138;17.370;2023-12-14T05:45:09;99316.48;;;3.00;100.00
34696;BME280;20918;51.138;17.370;2023-12-14T05:48:18;99321.56;;;3.00;100.00
34696;BME280;20918;51.138;17.370;2023-12-14T05:51:28;99325.67;;;3.01;100.00
34696;BME280;20918;51.138;17.370;2023-12-14T05:54:30;99324.88;;;3.01;100.00
34696;BME280;20918;51.138;17.370;2023-12-14T05:57:30;99333.07;;;2.99;100.00
34696;BME280;20918;51.138;17.370;2023-12-14T06:00:31;99337.86;;;2.98;100.00
34696;BME280;20918;51.138;17.370;2023-12-14T06:03:34;99340.83;;;3.00;100.00
34696;BME280;20918;51.138;17.370;2023-12-14T06:06:38;99345.42;;;3.01;100.00
34696;BME280;20918;51.138;17.370;2023-12-14T06:09:42;99351.95;;;2.99;100.00
34696;BME280;20918;51.138;17.370;2023-12-14T06:12:43;99357.37;;;2.97;100.00
34696;BME280;20918;51.138;17.370;2023-12-14T06:16:16;99357.59;;;2.96;100.00
34696;BME280;20918;51.138;17.370;2023-12-14T06:19:20;99359.47;;;3.01;100.00
34696;BME280;20918;51.138;17.370;2023-12-14T06:22:24;99357.75;;;3.06;100.00
34696;BME280;20918;51.138;17.370;2023-12-14T06:25:29;99358.76;;;3.10;100.00
34696;BME280;20918;51.138;17.370;2023-12-14T06:28:30;99364.71;;;3.14;100.00
34696;BME280;20918;51.138;17.370;2023-12-14T06:31:43;99371.65;;;3.17;100.00
34696;BME280;20918;51.138;17.370;2023-12-14T06:34:45;99376.30;;;3.22;100.00
34696;BME280;20918;51.138;17.370;2023-12-14T06:37:49;99379.05;;;3.24;100.00
34696;BME280;20918;51.138;17.370;2023-12-14T06:40:50;99386.14;;;3.27;100.00
34696;BME280;20918;51.138;17.370;2023-12-14T06:43:54;99384.78;;;3.24;100.00
34696;BME280;20918;51.138;17.370;2023-12-14T06:46:55;99396.19;;;3.26;100.00
34696;BME280;20918;51.138;17.370;2023-12-14T06:50:00;99402.06;;;3.28;100.00
34696;BME280;20918;51.138;17.370;2023-12-14T06:53:03;99410.73;;;3.29;100.00
34696;BME280;20918;51.138;17.370;2023-12-14T06:56:04;99417.05;;;3.29;100.00
34696;BME280;20918;51.138;17.370;2023-12-14T06:59:15;99423.85;;;3.31;100.00
34696;BME280;20918;51.138;17.370;2023-12-14T07:02:16;99430.89;;;3.34;100.00
34696;BME280;20918;51.138;17.370;2023-12-14T07:05:20;99433.52;;;3.36;100.00
34696;BME280;20918;51.138;17.370;2023-12-14T07:08:20;99438.20;;;3.37;100.00
34696;BME280;20918;51.138;17.370;2023-12-14T07:11:21;99438.73;;;3.37;100.00
34696;BME280;20918;51.138;17.370;2023-12-14T07:14:53;99445.97;;;3.36;100.00
34696;BME280;20918;51.138;17.370;2023-12-14T07:17:56;99454.41;;;3.35;100.00
34696;BME280;20918;51.138;17.370;2023-12-14T07:20:57;99458.80;;;3.33;100.00
34696;BME280;20918;51.138;17.370;2023-12-14T07:23:58;99466.98;;;3.30;100.00
34696;BME280;20918;51.138;17.370;2023-12-14T07:27:02;99469.36;;;3.27;100.00
34696;BME280;20918;51.138;17.370;2023-12-14T07:30:03;99475.23;;;3.25;100.00
34696;BME280;20918;51.138;17.370;2023-12-14T07:33:05;99482.88;;;3.20;100.00
34696;BME280;20918;51.138;17.370;2023-12-14T07:36:06;99484.48;;;3.22;100.00
34696;BME280;20918;51.138;17.370;2023-12-14T07:39:07;99490.22;;;3.24;100.00
34696;BME280;20918;51.138;17.370;2023-12-14T07:42:09;99493.86;;;3.24;100.00
34696;BME280;20918;51.138;17.370;2023-12-14T07:45:10;99497.34;;;3.25;100.00
34696;BME280;20918;51.138;17.370;2023-12-14T07:48:11;99503.95;;;3.23;100.00
34696;BME280;20918;51.138;17.370;2023-12-14T07:51:12;99510.30;;;3.18;100.00
34696;BME280;20918;51.138;17.370;2023-12-14T07:54:13;99516.33;;;3.11;100.00
34696;BME280;20918;51.138;17.370;2023-12-14T07:57:14;99520.77;;;3.08;100.00
34696;BME280;20918;51.138;17.370;2023-12-14T08:00:15;99524.95;;;3.06;100.00
34696;BME280;20918;51.138;17.370;2023-12-14T08:03:20;99530.72;;;3.10;100.00
34696;BME280;20918;51.138;17.370;2023-12-14T08:06:21;99536.90;;;3.11;100.00
34696;BME280;20918;51.138;17.370;2023-12-14T08:09:25;99539.75;;;3.11;100.00
34696;BME280;20918;51.138;17.370;2023-12-14T08:12:26;99547.73;;;3.12;100.00
34696;BME280;20918;51.138;17.370;2023-12-14T08:15:29;99550.68;;;3.14;100.00
34696;BME280;20918;51.138;17.370;2023-12-14T08:18:33;99547.89;;;3.10;100.00
34696;BME280;20918;51.138;17.370;2023-12-14T08:21:37;99556.34;;;3.07;100.00
34696;BME280;20918;51.138;17.370;2023-12-14T08:24:41;99561.91;;;3.05;100.00
34696;BME280;20918;51.138;17.370;2023-12-14T08:27:43;99563.09;;;3.04;100.00
34696;BME280;20918;51.138;17.370;2023-12-14T08:30:49;99565.23;;;3.05;100.00
34696;BME280;20918;51.138;17.370;2023-12-14T08:33:50;99564.80;;;3.08;100.00
34696;BME280;20918;51.138;17.370;2023-12-14T08:37:04;99568.70;;;3.12;100.00
34696;BME280;20918;51.138;17.370;2023-12-14T08:44:05;99583.35;;;3.22;100.00
34696;BME280;20918;51.138;17.370;2023-12-14T08:47:16;99589.52;;;3.28;100.00
34696;BME280;20918;51.138;17.370;2023-12-14T08:50:19;99598.65;;;3.31;100.00
34696;BME280;20918;51.138;17.370;2023-12-14T08:53:34;99608.30;;;3.33;100.00
34696;BME280;20918;51.138;17.370;2023-12-14T08:56:52;99621.66;;;3.32;100.00
34696;BME280;20918;51.138;17.370;2023-12-14T09:00:04;99623.12;;;3.30;100.00
34696;BME280;20918;51.138;17.370;2023-12-14T09:03:09;99632.02;;;3.30;100.00
34696;BME280;20918;51.138;17.370;2023-12-14T09:06:13;99634.27;;;3.30;100.00
34696;BME280;20918;51.138;17.370;2023-12-14T09:09:15;99638.74;;;3.33;100.00
34696;BME280;20918;51.138;17.370;2023-12-14T09:12:19;99639.67;;;3.32;100.00
34696;BME280;20918;51.138;17.370;2023-12-14T09:15:22;99641.77;;;3.32;100.00
34696;BME280;20918;51.138;17.370;2023-12-14T09:18:26;99640.77;;;3.29;100.00
34696;BME280;20918;51.138;17.370;2023-12-14T09:21:51;99645.80;;;3.24;100.00
34696;BME280;20918;51.138;17.370;2023-12-14T09:24:55;99639.93;;;3.15;100.00
34696;BME280;20918;51.138;17.370;2023-12-14T09:27:59;99645.11;;;3.07;100.00
34696;BME280;20918;51.138;17.370;2023-12-14T09:31:00;99650.14;;;3.02;100.00
34696;BME280;20918;51.138;17.370;2023-12-14T09:34:04;99650.39;;;2.99;100.00
34696;BME280;20918;51.138;17.370;2023-12-14T09:37:04;99657.73;;;3.00;100.00
34696;BME280;20918;51.138;17.370;2023-12-14T09:40:06;99662.45;;;3.01;100.00
34696;BME280;20918;51.138;17.370;2023-12-14T09:43:08;99661.48;;;3.04;100.00
34696;BME280;20918;51.138;17.370;2023-12-14T09:46:10;99666.41;;;3.09;100.00
34696;BME280;20918;51.138;17.370;2023-12-14T09:49:21;99665.21;;;3.15;100.00
34696;BME280;20918;51.138;17.370;2023-12-14T09:52:24;99668.79;;;3.21;100.00
34696;BME280;20918;51.138;17.370;2023-12-14T09:55:28;99674.04;;;3.25;100.00
34696;BME280;20918;51.138;17.370;2023-12-14T09:58:31;99672.95;;;3.27;100.00
34696;BME280;20918;51.138;17.370;2023-12-14T10:01:33;99668.83;;;3.26;100.00
34696;BME280;20918;51.138;17.370;2023-12-14T10:04:34;99671.55;;;3.25;100.00
34696;BME280;20918;51.138;17.370;2023-12-14T10:07:42;99670.52;;;3.25;100.00
34696;BME280;20918;51.138;17.370;2023-12-14T10:10:48;99674.08;;;3.27;100.00
34696;BME280;20918;51.138;17.370;2023-12-14T10:13:51;99678.86;;;3.32;100.00
34696;BME280;20918;51.138;17.370;2023-12-14T10:17:20;99679.10;;;3.37;100.00
34696;BME280;20918;51.138;17.370;2023-12-14T10:20:28;99680.98;;;3.42;100.00
34696;BME280;20918;51.138;17.370;2023-12-14T10:23:30;99680.52;;;3.39;100.00
34696;BME280;20918;51.138;17.370;2023-12-14T10:26:34;99680.11;;;3.42;100.00
34696;BME280;20918;51.138;17.370;2023-12-14T10:29:36;99682.11;;;3.43;100.00
34696;BME280;20918;51.138;17.370;2023-12-14T10:32:37;99684.06;;;3.44;100.00
34696;BME280;20918;51.138;17.370;2023-12-14T10:35:38;99684.41;;;3.47;100.00
34696;BME280;20918;51.138;17.370;2023-12-14T10:38:43;99688.27;;;3.48;100.00
34696;BME280;20918;51.138;17.370;2023-12-14T10:41:49;99684.33;;;3.52;100.00
34696;BME280;20918;51.138;17.370;2023-12-14T10:44:56;99689.20;;;3.56;100.00
34696;BME280;20918;51.138;17.370;2023-12-14T10:47:59;99691.36;;;3.57;100.00
34696;BME280;20918;51.138;17.370;2023-12-14T10:51:02;99698.41;;;3.54;100.00
34696;BME280;20918;51.138;17.370;2023-12-14T10:54:06;99701.73;;;3.54;100.00
34696;BME280;20918;51.138;17.370;2023-12-14T10:57:07;99708.11;;;3.54;100.00
34696;BME280;20918;51.138;17.370;2023-12-14T11:00:11;99711.19;;;3.52;100.00
34696;BME280;20918;51.138;17.370;2023-12-14T11:03:13;99721.65;;;3.51;100.00
34696;BME280;20918;51.138;17.370;2023-12-14T11:09:31;99728.83;;;3.40;100.00
34696;BME280;20918;51.138;17.370;2023-12-14T11:12:33;99735.87;;;3.40;100.00
34696;BME280;20918;51.138;17.370;2023-12-14T11:15:37;99737.51;;;3.37;100.00
34696;BME280;20918;51.138;17.370;2023-12-14T11:18:41;99745.00;;;3.33;100.00
34696;BME280;20918;51.138;17.370;2023-12-14T11:21:44;99746.95;;;3.31;100.00
34696;BME280;20918;51.138;17.370;2023-12-14T11:24:54;99753.99;;;3.28;100.00
34696;BME280;20918;51.138;17.370;2023-12-14T11:28:03;99752.65;;;3.30;100.00
34696;BME280;20918;51.138;17.370;2023-12-14T11:31:14;99748.48;;;3.31;100.00
34696;BME280;20918;51.138;17.370;2023-12-14T11:34:15;99754.52;;;3.34;100.00
34696;BME280;20918;51.138;17.370;2023-12-14T11:37:20;99759.33;;;3.35;100.00
34696;BME280;20918;51.138;17.370;2023-12-14T11:40:22;99763.91;;;3.37;100.00
34696;BME280;20918;51.138;17.370;2023-12-14T11:43:29;99764.61;;;3.37;100.00
34696;BME280;20918;51.138;17.370;2023-12-14T11:46:41;99771.80;;;3.36;100.00
34696;BME280;20918;51.138;17.370;2023-12-14T11:49:47;99778.80;;;3.39;100.00
34696;BME280;20918;51.138;17.370;2023-12-14T11:52:52;99784.48;;;3.40;100.00
34696;BME280;20918;51.138;17.370;2023-12-14T11:55:54;99789.34;;;3.38;100.00
34696;BME280;20918;51.138;17.370;2023-12-14T11:58:54;99791.01;;;3.37;100.00
34696;BME280;20918;51.138;17.370;2023-12-14T12:01:59;99793.60;;;3.35;100.00
34696;BME280;20918;51.138;17.370;2023-12-14T12:05:00;99793.13;;;3.35;100.00
34696;BME280;20918;51.138;17.370;2023-12-14T12:08:01;99800.27;;;3.35;100.00
34696;BME280;20918;51.138;17.370;2023-12-14T12:11:02;99802.73;;;3.37;100.00
34696;BME280;20918;51.138;17.370;2023-12-14T12:14:04;99805.30;;;3.40;100.00
34696;BME280;20918;51.138;17.370;2023-12-14T12:17:06;99807.33;;;3.41;100.00
34696;BME280;20918;51.138;17.370;2023-12-14T12:20:07;99807.77;;;3.35;100.00
34696;BME280;20918;51.138;17.370;2023-12-14T12:23:08;99810.14;;;3.32;100.00
34696;BME280;20918;51.138;17.370;2023-12-14T12:26:35;99813.86;;;3.29;100.00
34696;BME280;20918;51.138;17.370;2023-12-14T12:29:39;99813.69;;;3.25;100.00
34696;BME280;20918;51.138;17.370;2023-12-14T12:32:42;99816.50;;;3.23;100.00
34696;BME280;20918;51.138;17.370;2023-12-14T12:35:47;99813.77;;;3.20;100.00
34696;BME280;20918;51.138;17.370;2023-12-14T12:38:51;99815.55;;;3.20;100.00
34696;BME280;20918;51.138;17.370;2023-12-14T12:41:55;99815.58;;;3.21;100.00
34696;BME280;20918;51.138;17.370;2023-12-14T12:44:59;99822.77;;;3.23;100.00
34696;BME280;20918;51.138;17.370;2023-12-14T12:48:02;99828.30;;;3.24;100.00
34696;BME280;20918;51.138;17.370;2023-12-14T12:51:06;99832.01;;;3.24;100.00
34696;BME280;20918;51.138;17.370;2023-12-14T12:54:07;99840.95;;;3.23;100.00
34696;BME280;20918;51.138;17.370;2023-12-14T12:57:10;99848.22;;;3.24;100.00
34696;BME280;20918;51.138;17.370;2023-12-14T13:00:11;99851.15;;;3.22;100.00
34696;BME280;20918;51.138;17.370;2023-12-14T13:03:16;99848.83;;;3.23;100.00
34696;BME280;20918;51.138;17.370;2023-12-14T13:06:24;99849.88;;;3.23;100.00
34696;BME280;20918;51.138;17.370;2023-12-14T13:13:01;99853.44;;;3.16;100.00
34696;BME280;20918;51.138;17.370;2023-12-14T13:16:11;99857.12;;;3.13;100.00
34696;BME280;20918;51.138;17.370;2023-12-14T13:19:20;99857.76;;;3.14;100.00
34696;BME280;20918;51.138;17.370;2023-12-14T13:22:26;99861.23;;;3.14;100.00
34696;BME280;20918;51.138;17.370;2023-12-14T13:25:27;99866.03;;;3.16;100.00
34696;BME280;20918;51.138;17.370;2023-12-14T13:28:31;99874.86;;;3.19;100.00
34696;BME280;20918;51.138;17.370;2023-12-14T13:31:32;99877.94;;;3.15;100.00
34696;BME280;20918;51.138;17.370;2023-12-14T13:34:32;99882.31;;;3.11;100.00
34696;BME280;20918;51.138;17.370;2023-12-14T13:37:33;99892.45;;;3.09;100.00
34696;BME280;20918;51.138;17.370;2023-12-14T13:40:34;99896.56;;;3.05;100.00
34696;BME280;20918;51.138;17.370;2023-12-14T13:43:34;99901.32;;;3.01;100.00
34696;BME280;20918;51.138;17.370;2023-12-14T13:46:35;99904.79;;;2.97;100.00
34696;BME280;20918;51.138;17.370;2023-12-14T13:49:36;99912.92;;;2.95;100.00
34696;BME280;20918;51.138;17.370;2023-12-14T13:52:38;99920.38;;;2.94;100.00
34696;BME280;20918;51.138;17.370;2023-12-14T13:55:41;99918.71;;;2.93;100.00
34696;BME280;20918;51.138;17.370;2023-12-14T13:58:42;99921.70;;;2.93;100.00
34696;BME280;20918;51.138;17.370;2023-12-14T14:01:43;99924.34;;;2.92;100.00
34696;BME280;20918;51.138;17.370;2023-12-14T14:04:44;99932.08;;;2.94;100.00
34696;BME280;20918;51.138;17.370;2023-12-14T14:07:45;99934.95;;;2.95;100.00
34696;BME280;20918;51.138;17.370;2023-12-14T14:10:45;99941.29;;;2.95;100.00
34696;BME280;20918;51.138;17.370;2023-12-14T14:13:52;99948.30;;;2.95;100.00
34696;BME280;20918;51.138;17.370;2023-12-14T14:16:54;99953.69;;;2.93;100.00
34696;BME280;20918;51.138;17.370;2023-12-14T14:19:55;99963.86;;;2.92;100.00
34696;BME280;20918;51.138;17.370;2023-12-14T14:22:56;99965.73;;;2.90;100.00
34696;BME280;20918;51.138;17.370;2023-12-14T14:25:59;99972.83;;;2.89;100.00
34696;BME280;20918;51.138;17.370;2023-12-14T14:29:00;99977.51;;;2.89;100.00
34696;BME280;20918;51.138;17.370;2023-12-14T14:32:02;99981.55;;;2.87;100.00
34696;BME280;20918;51.138;17.370;2023-12-14T14:35:06;99985.13;;;2.84;100.00
34696;BME280;20918;51.138;17.370;2023-12-14T14:38:20;99990.75;;;2.81;100.00
34696;BME280;20918;51.138;17.370;2023-12-14T14:41:26;99998.98;;;2.79;100.00
34696;BME280;20918;51.138;17.370;2023-12-14T14:44:29;100005.08;;;2.77;100.00
34696;BME280;20918;51.138;17.370;2023-12-14T14:47:40;100011.58;;;2.77;100.00
34696;BME280;20918;51.138;17.370;2023-12-14T14:50:45;100021.65;;;2.75;100.00
34696;BME280;20918;51.138;17.370;2023-12-14T14:53:58;100029.65;;;2.75;100.00
34696;BME280;20918;51.138;17.370;2023-12-14T14:57:01;100035.77;;;2.75;100.00
34696;BME280;20918;51.138;17.370;2023-12-14T15:00:03;100045.46;;;2.74;100.00
34696;BME280;20918;51.138;17.370;2023-12-14T15:03:04;100052.54;;;2.71;100.00
34696;BME280;20918;51.138;17.370;2023-12-14T15:06:08;100053.88;;;2.69;100.00
34696;BME280;20918;51.138;17.370;2023-12-14T15:09:09;100059.17;;;2.66;100.00
34696;BME280;20918;51.138;17.370;2023-12-14T15:12:12;100065.20;;;2.62;100.00
34696;BME280;20918;51.138;17.370;2023-12-14T15:15:18;100060.73;;;2.59;100.00
34696;BME280;20918;51.138;17.370;2023-12-14T15:18:19;100064.56;;;2.55;100.00
34696;BME280;20918;51.138;17.370;2023-12-14T15:21:20;100063.91;;;2.55;100.00
34696;BME280;20918;51.138;17.370;2023-12-14T15:24:21;100067.91;;;2.55;100.00
34696;BME280;20918;51.138;17.370;2023-12-14T15:27:23;100074.72;;;2.57;100.00
34696;BME280;20918;51.138;17.370;2023-12-14T15:30:24;100077.95;;;2.56;100.00
34696;BME280;20918;51.138;17.370;2023-12-14T15:33:25;100088.58;;;2.54;100.00
34696;BME280;20918;51.138;17.370;2023-12-14T15:36:29;100093.80;;;2.54;100.00
34696;BME280;20918;51.138;17.370;2023-12-14T15:39:30;100098.92;;;2.53;100.00
34696;BME280;20918;51.138;17.370;2023-12-14T15:42:34;100110.11;;;2.53;100.00
34696;BME280;20918;51.138;17.370;2023-12-14T15:45:35;100120.34;;;2.54;100.00
34696;BME280;20918;51.138;17.370;2023-12-14T15:48:36;100125.59;;;2.54;100.00
34696;BME280;20918;51.138;17.370;2023-12-14T15:51:43;100134.03;;;2.53;100.00
34696;BME280;20918;51.138;17.370;2023-12-14T15:54:47;100134.84;;;2.52;100.00
34696;BME280;20918;51.138;17.370;2023-12-14T15:57:50;100145.94;;;2.51;100.00
34696;BME280;20918;51.138;17.370;2023-12-14T16:00:51;100146.64;;;2.50;100.00
34696;BME280;20918;51.138;17.370;2023-12-14T16:03:52;100149.73;;;2.49;100.00
34696;BME280;20918;51.138;17.370;2023-12-14T16:06:57;100146.39;;;2.49;100.00
34696;BME280;20918;51.138;17.370;2023-12-14T16:10:30;100161.02;;;2.50;100.00
34696;BME280;20918;51.138;17.370;2023-12-14T16:13:31;100165.23;;;2.47;100.00
34696;BME280;20918;51.138;17.370;2023-12-14T16:16:40;100172.50;;;2.43;100.00